sensor_id;sensor_type;location;lat;lon;timestamp;temperature;humidity
8850;DHT22;5638;50.860;4.698;2022-10-04T00:04:52;12.30;99.90
8850;DHT22;5638;50.860;4.698;2022-10-04T00:07:26;12.10;99.90
8850;DHT22;5638;50.860;4.698;2022-10-04T00:09:58;12.10;99.90
8850;DHT22;5638;50.860;4.698;2022-10-04T00:12:52;12.00;99.90
8850;DHT22;5638;50.860;4.698;2022-10-04T00:15:30;12.00;99.90
8850;DHT22;5638;50.860;4.698;2022-10-04T00:26:00;11.80;99.90
8850;DHT22;5638;50.860;4.698;2022-10-04T00:28:31;11.80;99.90
8850;DHT22;5638;50.860;4.698;2022-10-04T00:31:26;11.80;99.90
8850;DHT22;5638;50.860;4.698;2022-10-04T00:36:50;11.80;99.90
8850;DHT22;5638;50.860;4.698;2022-10-04T00:39:45;11.80;99.90
8850;DHT22;5638;50.860;4.698;2022-10-04T00:42:46;11.80;99.90
8850;DHT22;5638;50.860;4.698;2022-10-04T00:45:37;11.70;99.90
8850;DHT22;5638;50.860;4.698;2022-10-04T00:54:05;11.60;99.90
8850;DHT22;5638;50.860;4.698;2022-10-04T00:56:43;11.60;99.90
8850;DHT22;5638;50.860;4.698;2022-10-04T00:59:37;11.60;99.90
8850;DHT22;5638;50.860;4.698;2022-10-04T01:05:41;11.50;99.90
8850;DHT22;5638;50.860;4.698;2022-10-04T01:08:13;11.40;99.90
8850;DHT22;5638;50.860;4.698;2022-10-04T01:13:34;11.50;99.90
8850;DHT22;5638;50.860;4.698;2022-10-04T01:16:28;11.50;99.90
8850;DHT22;5638;50.860;4.698;2022-10-04T01:21:46;11.30;99.90
8850;DHT22;5638;50.860;4.698;2022-10-04T01:24:38;11.30;99.90
8850;DHT22;5638;50.860;4.698;2022-10-04T01:27:40;11.30;99.90
8850;DHT22;5638;50.860;4.698;2022-10-04T01:30:11;11.30;99.90
8850;DHT22;5638;50.860;4.698;2022-10-04T01:32:40;11.30;99.90
8850;DHT22;5638;50.860;4.698;2022-10-04T01:35:11;11.30;99.90
8850;DHT22;5638;50.860;4.698;2022-10-04T01:37:39;11.30;99.90
8850;DHT22;5638;50.860;4.698;2022-10-04T01:40:07;11.30;99.90
8850;DHT22;5638;50.860;4.698;2022-10-04T01:42:50;11.30;99.90
8850;DHT22;5638;50.860;4.698;2022-10-04T01:45:23;11.30;99.90
8850;DHT22;5638;50.860;4.698;2022-10-04T01:48:00;11.20;99.90
8850;DHT22;5638;50.860;4.698;2022-10-04T01:50:38;11.20;99.90
8850;DHT22;5638;50.860;4.698;2022-10-04T01:53:21;11.20;99.90
8850;DHT22;5638;50.860;4.698;2022-10-04T01:56:04;11.20;99.90
8850;DHT22;5638;50.860;4.698;2022-10-04T01:58:47;11.20;99.90
8850;DHT22;5638;50.860;4.698;2022-10-04T02:01:27;11.10;99.90
8850;DHT22;5638;50.860;4.698;2022-10-04T02:04:03;11.10;99.90
8850;DHT22;5638;50.860;4.698;2022-10-04T02:06:43;11.10;99.90
8850;DHT22;5638;50.860;4.698;2022-10-04T02:09:17;11.00;99.90
8850;DHT22;5638;50.860;4.698;2022-10-04T02:11:49;11.10;99.90
8850;DHT22;5638;50.860;4.698;2022-10-04T02:14:23;11.00;99.90
8850;DHT22;5638;50.860;4.698;2022-10-04T02:16:52;11.00;99.90
8850;DHT22;5638;50.860;4.698;2022-10-04T02:19:25;11.10;99.90
8850;DHT22;5638;50.860;4.698;2022-10-04T02:22:01;11.00;99.90
8850;DHT22;5638;50.860;4.698;2022-10-04T02:24:32;11.00;99.90
8850;DHT22;5638;50.860;4.698;2022-10-04T02:27:01;11.10;99.90
8850;DHT22;5638;50.860;4.698;2022-10-04T02:29:27;11.10;99.90
8850;DHT22;5638;50.860;4.698;2022-10-04T02:31:53;11.00;99.90
8850;DHT22;5638;50.860;4.698;2022-10-04T02:34:39;10.90;99.90
8850;DHT22;5638;50.860;4.698;2022-10-04T02:37:07;10.90;99.90
8850;DHT22;5638;50.860;4.698;2022-10-04T02:39:42;10.90;99.90
8850;DHT22;5638;50.860;4.698;2022-10-04T02:42:36;10.90;99.90
8850;DHT22;5638;50.860;4.698;2022-10-04T02:45:25;10.90;99.90
8850;DHT22;5638;50.860;4.698;2022-10-04T02:48:43;10.80;99.90
8850;DHT22;5638;50.860;4.698;2022-10-04T02:53:58;10.80;99.90
8850;DHT22;5638;50.860;4.698;2022-10-04T02:56:26;10.70;99.90
8850;DHT22;5638;50.860;4.698;2022-10-04T02:58:53;10.70;99.90
8850;DHT22;5638;50.860;4.698;2022-10-04T03:01:35;10.60;99.90
8850;DHT22;5638;50.860;4.698;2022-10-04T03:04:14;10.70;99.90
8850;DHT22;5638;50.860;4.698;2022-10-04T03:06:42;10.70;99.90
8850;DHT22;5638;50.860;4.698;2022-10-04T03:09:13;10.60;99.90
8850;DHT22;5638;50.860;4.698;2022-10-04T03:11:41;10.60;99.90
8850;DHT22;5638;50.860;4.698;2022-10-04T03:14:23;10.60;99.90
8850;DHT22;5638;50.860;4.698;2022-10-04T03:16:54;10.50;99.90
8850;DHT22;5638;50.860;4.698;2022-10-04T03:19:26;10.50;99.90
8850;DHT22;5638;50.860;4.698;2022-10-04T03:21:58;10.40;99.90
8850;DHT22;5638;50.860;4.698;2022-10-04T03:24:30;10.40;99.90
8850;DHT22;5638;50.860;4.698;2022-10-04T03:27:05;10.40;99.90
8850;DHT22;5638;50.860;4.698;2022-10-04T03:29:34;10.50;99.90
8850;DHT22;5638;50.860;4.698;2022-10-04T03:32:09;10.50;99.90
8850;DHT22;5638;50.860;4.698;2022-10-04T03:34:40;10.50;99.90
8850;DHT22;5638;50.860;4.698;2022-10-04T03:37:15;10.50;99.90
8850;DHT22;5638;50.860;4.698;2022-10-04T03:39:54;10.50;99.90
8850;DHT22;5638;50.860;4.698;2022-10-04T03:42:30;10.40;99.90
8850;DHT22;5638;50.860;4.698;2022-10-04T03:45:10;10.40;99.90
8850;DHT22;5638;50.860;4.698;2022-10-04T03:47:43;10.40;99.90
8850;DHT22;5638;50.860;4.698;2022-10-04T03:50:17;10.30;99.90
8850;DHT22;5638;50.860;4.698;2022-10-04T03:53:00;10.30;99.90
8850;DHT22;5638;50.860;4.698;2022-10-04T03:55:33;10.30;99.90
8850;DHT22;5638;50.860;4.698;2022-10-04T03:58:10;10.30;99.90
8850;DHT22;5638;50.860;4.698;2022-10-04T04:00:42;10.20;99.90
8850;DHT22;5638;50.860;4.698;2022-10-04T04:03:35;10.20;99.90
8850;DHT22;5638;50.860;4.698;2022-10-04T04:06:14;10.30;99.90
8850;DHT22;5638;50.860;4.698;2022-10-04T04:08:46;10.30;99.90
8850;DHT22;5638;50.860;4.698;2022-10-04T04:11:26;10.30;99.90
8850;DHT22;5638;50.860;4.698;2022-10-04T04:16:29;10.20;99.90
8850;DHT22;5638;50.860;4.698;2022-10-04T04:18:59;10.20;99.90
8850;DHT22;5638;50.860;4.698;2022-10-04T04:21:28;10.10;99.90
8850;DHT22;5638;50.860;4.698;2022-10-04T04:24:04;10.10;99.90
8850;DHT22;5638;50.860;4.698;2022-10-04T04:29:22;10.10;99.90
8850;DHT22;5638;50.860;4.698;2022-10-04T04:34:30;10.10;99.90
8850;DHT22;5638;50.860;4.698;2022-10-04T04:37:00;10.10;99.90
8850;DHT22;5638;50.860;4.698;2022-10-04T04:39:30;10.10;99.90
8850;DHT22;5638;50.860;4.698;2022-10-04T04:42:26;10.10;99.90
8850;DHT22;5638;50.860;4.698;2022-10-04T04:45:16;10.10;99.90
8850;DHT22;5638;50.860;4.698;2022-10-04T04:47:49;10.10;99.90
8850;DHT22;5638;50.860;4.698;2022-10-04T04:50:19;10.10;99.90
8850;DHT22;5638;50.860;4.698;2022-10-04T04:52:52;10.00;99.90
8850;DHT22;5638;50.860;4.698;2022-10-04T04:55:29;10.00;99.90
8850;DHT22;5638;50.860;4.698;2022-10-04T04:58:26;10.00;99.90
8850;DHT22;5638;50.860;4.698;2022-10-04T05:01:06;9.90;99.90
8850;DHT22;5638;50.860;4.698;2022-10-04T05:03:42;9.90;99.90
8850;DHT22;5638;50.860;4.698;2022-10-04T05:06:39;9.90;99.90
8850;DHT22;5638;50.860;4.698;2022-10-04T05:09:22;9.80;99.90
8850;DHT22;5638;50.860;4.698;2022-10-04T05:11:48;9.90;99.90
8850;DHT22;5638;50.860;4.698;2022-10-04T05:14:18;9.90;99.90
8850;DHT22;5638;50.860;4.698;2022-10-04T05:16:52;9.90;99.90
8850;DHT22;5638;50.860;4.698;2022-10-04T05:19:29;9.90;99.90
8850;DHT22;5638;50.860;4.698;2022-10-04T05:22:01;9.90;99.90
8850;DHT22;5638;50.860;4.698;2022-10-04T05:24:37;9.90;99.90
8850;DHT22;5638;50.860;4.698;2022-10-04T05:27:27;9.90;99.90
8850;DHT22;5638;50.860;4.698;2022-10-04T05:44:54;9.70;99.90
8850;DHT22;5638;50.860;4.698;2022-10-04T05:47:27;9.70;99.90
8850;DHT22;5638;50.860;4.698;2022-10-04T05:49:59;9.70;99.90
8850;DHT22;5638;50.860;4.698;2022-10-04T05:52:35;9.70;99.90
8850;DHT22;5638;50.860;4.698;2022-10-04T05:55:16;9.70;99.90
8850;DHT22;5638;50.860;4.698;2022-10-04T06:04:13;9.60;99.90
8850;DHT22;5638;50.860;4.698;2022-10-04T06:06:59;9.60;99.90
8850;DHT22;5638;50.860;4.698;2022-10-04T06:09:51;9.70;99.90
8850;DHT22;5638;50.860;4.698;2022-10-04T06:12:50;9.70;99.90
8850;DHT22;5638;50.860;4.698;2022-10-04T06:24:34;9.80;99.90
8850;DHT22;5638;50.860;4.698;2022-10-04T06:27:23;9.80;99.90
8850;DHT22;5638;50.860;4.698;2022-10-04T06:30:07;9.80;99.90
8850;DHT22;5638;50.860;4.698;2022-10-04T06:57:18;10.20;99.90
8850;DHT22;5638;50.860;4.698;2022-10-04T07:00:04;10.20;99.90
8850;DHT22;5638;50.860;4.698;2022-10-04T07:05:45;10.20;99.90
8850;DHT22;5638;50.860;4.698;2022-10-04T07:08:44;10.20;99.90
8850;DHT22;5638;50.860;4.698;2022-10-04T07:11:22;10.20;99.90
8850;DHT22;5638;50.860;4.698;2022-10-04T07:14:18;10.30;99.90
8850;DHT22;5638;50.860;4.698;2022-10-04T07:16:56;10.30;99.90
8850;DHT22;5638;50.860;4.698;2022-10-04T07:19:35;10.40;99.90
8850;DHT22;5638;50.860;4.698;2022-10-04T07:27:13;10.50;99.90
8850;DHT22;5638;50.860;4.698;2022-10-04T07:29:45;10.60;99.90
8850;DHT22;5638;50.860;4.698;2022-10-04T07:32:22;10.60;99.90
8850;DHT22;5638;50.860;4.698;2022-10-04T07:35:44;10.70;99.90
8850;DHT22;5638;50.860;4.698;2022-10-04T07:38:26;10.80;99.90
8850;DHT22;5638;50.860;4.698;2022-10-04T07:43:34;11.10;99.90
8850;DHT22;5638;50.860;4.698;2022-10-04T07:49:15;11.50;99.90
8850;DHT22;5638;50.860;4.698;2022-10-04T07:52:17;11.60;99.90
8850;DHT22;5638;50.860;4.698;2022-10-04T07:58:32;11.90;99.90
8850;DHT22;5638;50.860;4.698;2022-10-04T08:04:17;12.20;99.90
8850;DHT22;5638;50.860;4.698;2022-10-04T08:07:02;12.30;99.90
8850;DHT22;5638;50.860;4.698;2022-10-04T08:15:35;12.80;99.90
8850;DHT22;5638;50.860;4.698;2022-10-04T08:21:17;12.90;99.90
8850;DHT22;5638;50.860;4.698;2022-10-04T08:24:24;13.10;99.90
8850;DHT22;5638;50.860;4.698;2022-10-04T08:30:04;13.40;99.90
8850;DHT22;5638;50.860;4.698;2022-10-04T08:32:58;13.60;99.90
8850;DHT22;5638;50.860;4.698;2022-10-04T08:43:34;14.20;99.90
8850;DHT22;5638;50.860;4.698;2022-10-04T08:52:37;14.40;99.90
8850;DHT22;5638;50.860;4.698;2022-10-04T09:01:44;14.70;99.90
8850;DHT22;5638;50.860;4.698;2022-10-04T09:16:48;15.40;99.90
8850;DHT22;5638;50.860;4.698;2022-10-04T09:19:39;15.60;99.90
8850;DHT22;5638;50.860;4.698;2022-10-04T09:31:12;16.40;99.90
8850;DHT22;5638;50.860;4.698;2022-10-04T09:39:56;16.50;99.90
8850;DHT22;5638;50.860;4.698;2022-10-04T09:43:05;16.70;99.90
8850;DHT22;5638;50.860;4.698;2022-10-04T09:55:00;17.60;99.90
8850;DHT22;5638;50.860;4.698;2022-10-04T09:57:42;17.70;99.90
8850;DHT22;5638;50.860;4.698;2022-10-04T10:00:33;17.80;99.90
8850;DHT22;5638;50.860;4.698;2022-10-04T10:06:23;17.80;99.90
8850;DHT22;5638;50.860;4.698;2022-10-04T10:09:35;17.50;99.90
8850;DHT22;5638;50.860;4.698;2022-10-04T10:25:39;18.20;99.90
8850;DHT22;5638;50.860;4.698;2022-10-04T10:38:07;18.70;99.90
8850;DHT22;5638;50.860;4.698;2022-10-04T10:43:49;18.70;99.90
8850;DHT22;5638;50.860;4.698;2022-10-04T10:46:48;18.80;99.90
8850;DHT22;5638;50.860;4.698;2022-10-04T10:57:56;19.20;99.90
8850;DHT22;5638;50.860;4.698;2022-10-04T11:19:20;20.30;99.90
8850;DHT22;5638;50.860;4.698;2022-10-04T11:28:16;20.40;99.90
8850;DHT22;5638;50.860;4.698;2022-10-04T11:37:37;20.40;99.90
8850;DHT22;5638;50.860;4.698;2022-10-04T11:49:54;20.80;99.90
8850;DHT22;5638;50.860;4.698;2022-10-04T11:56:18;21.10;99.90
8850;DHT22;5638;50.860;4.698;2022-10-04T11:59:19;21.10;99.90
8850;DHT22;5638;50.860;4.698;2022-10-04T12:02:23;21.30;99.90
8850;DHT22;5638;50.860;4.698;2022-10-04T12:14:30;21.70;99.90
8850;DHT22;5638;50.860;4.698;2022-10-04T12:28:33;22.20;99.90
8850;DHT22;5638;50.860;4.698;2022-10-04T12:31:40;22.40;99.90
8850;DHT22;5638;50.860;4.698;2022-10-04T12:43:45;22.70;99.90
8850;DHT22;5638;50.860;4.698;2022-10-04T12:46:48;22.60;99.90
8850;DHT22;5638;50.860;4.698;2022-10-04T12:50:06;22.40;99.90
8850;DHT22;5638;50.860;4.698;2022-10-04T12:53:09;22.50;99.90
8850;DHT22;5638;50.860;4.698;2022-10-04T13:01:44;22.70;99.90
8850;DHT22;5638;50.860;4.698;2022-10-04T13:04:33;22.70;99.90
8850;DHT22;5638;50.860;4.698;2022-10-04T13:10:35;22.90;99.90
8850;DHT22;5638;50.860;4.698;2022-10-04T13:16:10;22.70;99.90
8850;DHT22;5638;50.860;4.698;2022-10-04T13:21:51;23.00;99.90
8850;DHT22;5638;50.860;4.698;2022-10-04T13:33:37;23.00;99.90
8850;DHT22;5638;50.860;4.698;2022-10-04T13:36:24;23.10;99.90
8850;DHT22;5638;50.860;4.698;2022-10-04T13:39:13;23.10;99.90
8850;DHT22;5638;50.860;4.698;2022-10-04T13:45:01;22.90;99.90
8850;DHT22;5638;50.860;4.698;2022-10-04T13:48:03;23.00;99.90
8850;DHT22;5638;50.860;4.698;2022-10-04T13:53:38;23.20;99.90
8850;DHT22;5638;50.860;4.698;2022-10-04T13:59:57;22.70;99.90
8850;DHT22;5638;50.860;4.698;2022-10-04T14:11:13;23.00;99.90
8850;DHT22;5638;50.860;4.698;2022-10-04T14:26:11;22.90;99.90
8850;DHT22;5638;50.860;4.698;2022-10-04T14:39:08;22.20;99.90
8850;DHT22;5638;50.860;4.698;2022-10-04T15:09:51;22.50;99.90
8850;DHT22;5638;50.860;4.698;2022-10-04T15:12:44;22.30;99.90
8850;DHT22;5638;50.860;4.698;2022-10-04T15:16:12;21.70;99.90
8850;DHT22;5638;50.860;4.698;2022-10-04T15:18:49;21.60;99.90
8850;DHT22;5638;50.860;4.698;2022-10-04T15:33:04;20.90;99.90
8850;DHT22;5638;50.860;4.698;2022-10-04T15:38:48;21.00;99.90
8850;DHT22;5638;50.860;4.698;2022-10-04T15:41:49;20.90;99.90
8850;DHT22;5638;50.860;4.698;2022-10-04T15:51:18;20.80;99.90
8850;DHT22;5638;50.860;4.698;2022-10-04T15:59:25;20.40;99.90
8850;DHT22;5638;50.860;4.698;2022-10-04T16:05:16;20.00;99.90
8850;DHT22;5638;50.860;4.698;2022-10-04T16:08:22;20.00;99.90
8850;DHT22;5638;50.860;4.698;2022-10-04T16:11:35;20.00;99.90
8850;DHT22;5638;50.860;4.698;2022-10-04T16:14:33;19.90;99.90
8850;DHT22;5638;50.860;4.698;2022-10-04T16:21:27;19.90;99.90
8850;DHT22;5638;50.860;4.698;2022-10-04T16:32:26;19.80;99.90
8850;DHT22;5638;50.860;4.698;2022-10-04T16:35:14;19.70;99.90
8850;DHT22;5638;50.860;4.698;2022-10-04T16:49:01;19.40;99.90
8850;DHT22;5638;50.860;4.698;2022-10-04T17:04:05;18.90;99.90
8850;DHT22;5638;50.860;4.698;2022-10-04T17:06:59;18.80;99.90
8850;DHT22;5638;50.860;4.698;2022-10-04T17:12:53;18.60;99.90
8850;DHT22;5638;50.860;4.698;2022-10-04T17:15:41;18.50;99.90
8850;DHT22;5638;50.860;4.698;2022-10-04T17:27:02;18.40;99.90
8850;DHT22;5638;50.860;4.698;2022-10-04T17:30:14;18.20;99.90
8850;DHT22;5638;50.860;4.698;2022-10-04T17:33:06;18.20;99.90
8850;DHT22;5638;50.860;4.698;2022-10-04T17:39:14;18.00;99.90
8850;DHT22;5638;50.860;4.698;2022-10-04T17:42:48;18.00;99.90
8850;DHT22;5638;50.860;4.698;2022-10-04T17:48:06;18.00;99.90
8850;DHT22;5638;50.860;4.698;2022-10-04T17:53:59;17.90;99.90
8850;DHT22;5638;50.860;4.698;2022-10-04T17:59:39;17.90;99.90
8850;DHT22;5638;50.860;4.698;2022-10-04T18:02:23;17.90;99.90
8850;DHT22;5638;50.860;4.698;2022-10-04T18:05:19;17.80;99.90
8850;DHT22;5638;50.860;4.698;2022-10-04T18:08:03;17.80;99.90
8850;DHT22;5638;50.860;4.698;2022-10-04T18:11:04;17.60;99.90
8850;DHT22;5638;50.860;4.698;2022-10-04T18:16:30;17.60;99.90
8850;DHT22;5638;50.860;4.698;2022-10-04T18:19:34;17.60;99.90
8850;DHT22;5638;50.860;4.698;2022-10-04T18:24:46;17.50;99.90
8850;DHT22;5638;50.860;4.698;2022-10-04T18:27:27;17.50;99.90
8850;DHT22;5638;50.860;4.698;2022-10-04T18:33:09;17.30;99.90
8850;DHT22;5638;50.860;4.698;2022-10-04T18:35:52;17.20;99.90
8850;DHT22;5638;50.860;4.698;2022-10-04T18:38:27;17.20;99.90
8850;DHT22;5638;50.860;4.698;2022-10-04T18:40:59;17.10;99.90
8850;DHT22;5638;50.860;4.698;2022-10-04T18:43:39;17.10;99.90
8850;DHT22;5638;50.860;4.698;2022-10-04T18:46:15;17.00;99.90
8850;DHT22;5638;50.860;4.698;2022-10-04T18:49:06;16.90;99.90
8850;DHT22;5638;50.860;4.698;2022-10-04T18:57:48;16.70;99.90
8850;DHT22;5638;50.860;4.698;2022-10-04T19:00:53;16.70;99.90
8850;DHT22;5638;50.860;4.698;2022-10-04T19:04:07;16.70;99.90
8850;DHT22;5638;50.860;4.698;2022-10-04T19:06:43;16.70;99.90
8850;DHT22;5638;50.860;4.698;2022-10-04T19:21:29;16.70;99.90
8850;DHT22;5638;50.860;4.698;2022-10-04T19:27:26;16.70;99.90
8850;DHT22;5638;50.860;4.698;2022-10-04T19:38:32;16.50;99.90
8850;DHT22;5638;50.860;4.698;2022-10-04T19:47:50;16.50;99.90
8850;DHT22;5638;50.860;4.698;2022-10-04T19:50:44;16.50;99.90
8850;DHT22;5638;50.860;4.698;2022-10-04T19:53:19;16.50;99.90
8850;DHT22;5638;50.860;4.698;2022-10-04T19:55:57;16.40;99.90
8850;DHT22;5638;50.860;4.698;2022-10-04T19:58:40;16.40;99.90
8850;DHT22;5638;50.860;4.698;2022-10-04T20:01:21;16.40;99.90
8850;DHT22;5638;50.860;4.698;2022-10-04T20:03:51;16.50;99.90
8850;DHT22;5638;50.860;4.698;2022-10-04T20:06:38;16.40;99.90
8850;DHT22;5638;50.860;4.698;2022-10-04T20:09:31;16.40;99.90
8850;DHT22;5638;50.860;4.698;2022-10-04T20:12:32;16.30;99.90
8850;DHT22;5638;50.860;4.698;2022-10-04T20:17:47;16.30;99.90
8850;DHT22;5638;50.860;4.698;2022-10-04T20:21:02;16.30;99.90
8850;DHT22;5638;50.860;4.698;2022-10-04T20:23:08;16.20;99.90
8850;DHT22;5638;50.860;4.698;2022-10-04T20:31:50;16.20;99.90
8850;DHT22;5638;50.860;4.698;2022-10-04T20:34:49;16.20;99.90
8850;DHT22;5638;50.860;4.698;2022-10-04T20:37:08;16.30;99.90
8850;DHT22;5638;50.860;4.698;2022-10-04T20:47:36;16.20;99.90
8850;DHT22;5638;50.860;4.698;2022-10-04T20:53:29;16.30;99.90
8850;DHT22;5638;50.860;4.698;2022-10-04T20:58:53;16.40;99.90
8850;DHT22;5638;50.860;4.698;2022-10-04T21:01:33;16.30;99.90
8850;DHT22;5638;50.860;4.698;2022-10-04T21:04:20;16.30;99.90
8850;DHT22;5638;50.860;4.698;2022-10-04T21:07:11;16.20;99.90
8850;DHT22;5638;50.860;4.698;2022-10-04T21:09:41;16.20;99.90
8850;DHT22;5638;50.860;4.698;2022-10-04T21:12:35;16.20;99.90
8850;DHT22;5638;50.860;4.698;2022-10-04T21:17:41;16.20;99.90
8850;DHT22;5638;50.860;4.698;2022-10-04T21:20:47;16.20;99.90
8850;DHT22;5638;50.860;4.698;2022-10-04T21:23:29;16.10;99.90
8850;DHT22;5638;50.860;4.698;2022-10-04T21:26:23;16.10;99.90
8850;DHT22;5638;50.860;4.698;2022-10-04T21:28:54;16.10;99.90
8850;DHT22;5638;50.860;4.698;2022-10-04T21:31:21;16.00;99.90
8850;DHT22;5638;50.860;4.698;2022-10-04T21:33:47;16.10;99.90
8850;DHT22;5638;50.860;4.698;2022-10-04T21:36:13;16.00;99.90
8850;DHT22;5638;50.860;4.698;2022-10-04T21:38:39;16.00;99.90
8850;DHT22;5638;50.860;4.698;2022-10-04T21:41:05;16.00;99.90
8850;DHT22;5638;50.860;4.698;2022-10-04T21:43:31;16.00;99.90
8850;DHT22;5638;50.860;4.698;2022-10-04T21:45:57;16.00;99.90
8850;DHT22;5638;50.860;4.698;2022-10-04T21:48:24;16.00;99.90
8850;DHT22;5638;50.860;4.698;2022-10-04T21:50:53;16.00;99.90
8850;DHT22;5638;50.860;4.698;2022-10-04T21:53:20;16.00;99.90
8850;DHT22;5638;50.860;4.698;2022-10-04T21:55:47;16.00;99.90
8850;DHT22;5638;50.860;4.698;2022-10-04T21:58:13;15.90;99.90
8850;DHT22;5638;50.860;4.698;2022-10-04T22:00:39;15.90;99.90
8850;DHT22;5638;50.860;4.698;2022-10-04T22:03:05;15.90;99.90
8850;DHT22;5638;50.860;4.698;2022-10-04T22:05:32;15.90;99.90
8850;DHT22;5638;50.860;4.698;2022-10-04T22:07:58;16.00;99.90
8850;DHT22;5638;50.860;4.698;2022-10-04T22:10:24;16.00;99.90
8850;DHT22;5638;50.860;4.698;2022-10-04T22:12:49;15.90;99.90
8850;DHT22;5638;50.860;4.698;2022-10-04T22:15:15;15.90;99.90
8850;DHT22;5638;50.860;4.698;2022-10-04T22:17:41;15.90;99.90
8850;DHT22;5638;50.860;4.698;2022-10-04T22:20:07;15.90;99.90
8850;DHT22;5638;50.860;4.698;2022-10-04T22:22:33;15.90;99.90
8850;DHT22;5638;50.860;4.698;2022-10-04T22:24:59;15.90;99.90
8850;DHT22;5638;50.860;4.698;2022-10-04T22:27:27;16.00;99.90
8850;DHT22;5638;50.860;4.698;2022-10-04T22:29:55;16.00;99.90
8850;DHT22;5638;50.860;4.698;2022-10-04T22:32:26;16.00;99.90
8850;DHT22;5638;50.860;4.698;2022-10-04T22:35:11;15.90;99.90
8850;DHT22;5638;50.860;4.698;2022-10-04T22:37:39;16.00;99.90
8850;DHT22;5638;50.860;4.698;2022-10-04T22:40:16;16.00;99.90
8850;DHT22;5638;50.860;4.698;2022-10-04T22:42:53;15.90;99.90
8850;DHT22;5638;50.860;4.698;2022-10-04T22:45:26;15.90;99.90
8850;DHT22;5638;50.860;4.698;2022-10-04T22:47:56;15.90;99.90
8850;DHT22;5638;50.860;4.698;2022-10-04T22:50:34;15.90;99.90
8850;DHT22;5638;50.860;4.698;2022-10-04T22:53:09;15.80;99.90
8850;DHT22;5638;50.860;4.698;2022-10-04T22:55:39;15.80;99.90
8850;DHT22;5638;50.860;4.698;2022-10-04T22:58:05;15.80;99.90
8850;DHT22;5638;50.860;4.698;2022-10-04T23:00:34;15.80;99.90
8850;DHT22;5638;50.860;4.698;2022-10-04T23:03:00;15.80;99.90
8850;DHT22;5638;50.860;4.698;2022-10-04T23:05:26;15.80;99.90
8850;DHT22;5638;50.860;4.698;2022-10-04T23:07:52;15.80;99.90
8850;DHT22;5638;50.860;4.698;2022-10-04T23:10:18;15.80;99.90
8850;DHT22;5638;50.860;4.698;2022-10-04T23:12:46;15.80;99.90
8850;DHT22;5638;50.860;4.698;2022-10-04T23:15:19;15.80;99.90
8850;DHT22;5638;50.860;4.698;2022-10-04T23:17:51;15.80;99.90
8850;DHT22;5638;50.860;4.698;2022-10-04T23:20:19;15.70;99.90
8850;DHT22;5638;50.860;4.698;2022-10-04T23:22:49;15.80;99.90
8850;DHT22;5638;50.860;4.698;2022-10-04T23:25:26;15.70;99.90
8850;DHT22;5638;50.860;4.698;2022-10-04T23:27:57;15.70;99.90
8850;DHT22;5638;50.860;4.698;2022-10-04T23:30:26;15.70;99.90
8850;DHT22;5638;50.860;4.698;2022-10-04T23:32:56;15.80;99.90
8850;DHT22;5638;50.860;4.698;2022-10-04T23:35:29;15.80;99.90
8850;DHT22;5638;50.860;4.698;2022-10-04T23:37:56;15.80;99.90
8850;DHT22;5638;50.860;4.698;2022-10-04T23:40:23;15.70;99.90
8850;DHT22;5638;50.860;4.698;2022-10-04T23:42:53;15.70;99.90
8850;DHT22;5638;50.860;4.698;2022-10-04T23:45:24;15.70;99.90
8850;DHT22;5638;50.860;4.698;2022-10-04T23:47:53;15.70;99.90
8850;DHT22;5638;50.860;4.698;2022-10-04T23:50:23;15.80;99.90
8850;DHT22;5638;50.860;4.698;2022-10-04T23:52:53;15.80;99.90
8850;DHT22;5638;50.860;4.698;2022-10-04T23:55:31;15.70;99.90
8850;DHT22;5638;50.860;4.698;2022-10-04T23:58:00;15.80;99.90
